Time;durP1;ratioP1;P1;durP2;ratioP2;P2;SDS_P1;SDS_P2;PMS_P1;PMS_P2;Temp;Humidity;BMP_temperature;BMP_pressure;BME280_temperature;BME280_humidity;BME280_pressure;Samples;Min_cycle;Max_cycle;Signal;HPM_P1;HPM_P2
2022/03/09 00:00:36;;;;;;;11.27;8.05;;;;;;;;;;5041868;28;20048;-77
2022/03/09 00:03:03;;;;;;;12.30;8.43;;;;;;;;;;5042132;28;20048;-78
2022/03/09 00:05:31;;;;;;;12.95;8.55;;;;;;;;;;5041649;28;20045;-78
2022/03/09 00:07:58;;;;;;;14.35;10.02;;;;;;;;;;5042092;28;20045;-77
2022/03/09 00:10:27;;;;;;;11.50;8.93;;;;;;;;;;5042005;28;20490;-77
2022/03/09 00:12:55;;;;;;;13.38;10.30;;;;;;;;;;5042553;28;20043;-78
2022/03/09 00:15:22;;;;;;;13.63;9.40;;;;;;;;;;5040923;28;20049;-78
2022/03/09 00:17:50;;;;;;;14.07;9.38;;;;;;;;;;5043659;28;20033;-78
2022/03/09 00:20:17;;;;;;;14.82;10.52;;;;;;;;;;5024068;28;20049;-78
2022/03/09 00:22:45;;;;;;;14.60;10.20;;;;;;;;;;5042873;28;20037;-78
2022/03/09 00:25:12;;;;;;;13.77;9.05;;;;;;;;;;5028977;28;20080;-78
2022/03/09 00:27:40;;;;;;;12.15;9.15;;;;;;;;;;5044595;28;20045;-78
2022/03/09 00:30:08;;;;;;;12.50;9.55;;;;;;;;;;5053604;28;20029;-78
2022/03/09 00:32:38;;;;;;;12.23;9.38;;;;;;;;;;5038893;28;20087;-78
2022/03/09 00:35:06;;;;;;;15.07;10.23;;;;;;;;;;5046273;28;20033;-78
2022/03/09 00:37:34;;;;;;;12.13;8.55;;;;;;;;;;5045502;28;20096;-78
2022/03/09 00:40:02;;;;;;;12.32;8.60;;;;;;;;;;5047459;28;20053;-78
2022/03/09 00:42:29;;;;;;;11.57;8.40;;;;;;;;;;5045576;28;20072;-78
2022/03/09 00:44:58;;;;;;;11.98;9.43;;;;;;;;;;5047339;28;20033;-78
2022/03/09 00:47:25;;;;;;;12.80;9.30;;;;;;;;;;5043628;28;20564;-77
2022/03/09 00:49:52;;;;;;;13.13;9.80;;;;;;;;;;5039788;28;20068;-78
2022/03/09 00:52:20;;;;;;;13.00;9.07;;;;;;;;;;5045265;28;20490;-78
2022/03/09 00:54:47;;;;;;;14.75;11.35;;;;;;;;;;5039147;28;20073;-78
2022/03/09 00:57:15;;;;;;;18.42;11.90;;;;;;;;;;5039194;28;20045;-77
2022/03/09 00:59:42;;;;;;;20.42;12.65;;;;;;;;;;5045105;28;20139;-78
2022/03/09 01:02:10;;;;;;;16.48;10.93;;;;;;;;;;5028421;28;20029;-78
2022/03/09 01:04:40;;;;;;;14.63;9.82;;;;;;;;;;5038655;28;20041;-77
2022/03/09 01:07:08;;;;;;;12.07;9.02;;;;;;;;;;5027677;28;20091;-78
2022/03/09 01:09:35;;;;;;;12.38;9.15;;;;;;;;;;5038181;28;20108;-77
2022/03/09 01:12:02;;;;;;;12.15;9.82;;;;;;;;;;5043893;28;20037;-77
2022/03/09 01:14:30;;;;;;;17.52;10.48;;;;;;;;;;5040316;28;20044;-78
2022/03/09 01:16:57;;;;;;;34.13;21.85;;;;;;;;;;5038463;28;20044;-77
2022/03/09 01:19:24;;;;;;;31.10;17.88;;;;;;;;;;5040864;28;20044;-77
2022/03/09 01:21:51;;;;;;;21.88;15.73;;;;;;;;;;5052347;28;20120;-77
2022/03/09 01:24:19;;;;;;;18.92;12.88;;;;;;;;;;5043954;28;20049;-78
2022/03/09 01:26:46;;;;;;;21.45;14.38;;;;;;;;;;5039616;28;20049;-78
2022/03/09 01:29:14;;;;;;;13.55;10.77;;;;;;;;;;5040028;28;20045;-77
2022/03/09 01:31:41;;;;;;;16.92;12.23;;;;;;;;;;5047262;28;20041;-77
2022/03/09 01:34:08;;;;;;;14.75;10.68;;;;;;;;;;5047856;28;20041;-77
2022/03/09 01:36:37;;;;;;;16.50;10.13;;;;;;;;;;5040057;28;20040;-77
2022/03/09 01:39:04;;;;;;;13.90;11.13;;;;;;;;;;5043875;28;20033;-77
2022/03/09 01:41:33;;;;;;;12.70;9.30;;;;;;;;;;5037168;28;20117;-77
2022/03/09 01:44:11;;;;;;;12.52;9.57;;;;;;;;;;5034468;28;20041;-78
2022/03/09 01:46:39;;;;;;;12.65;9.70;;;;;;;;;;5039458;28;20042;-78
2022/03/09 01:49:07;;;;;;;12.52;9.07;;;;;;;;;;5030440;28;20064;-77
2022/03/09 01:51:40;;;;;;;11.80;8.68;;;;;;;;;;5040084;28;20037;-77
2022/03/09 01:54:08;;;;;;;11.63;8.20;;;;;;;;;;5038184;28;20049;-77
2022/03/09 01:56:36;;;;;;;10.38;7.82;;;;;;;;;;5043860;28;20095;-77
2022/03/09 01:59:08;;;;;;;14.50;9.63;;;;;;;;;;5041707;28;20621;-77
2022/03/09 02:01:35;;;;;;;12.00;8.63;;;;;;;;;;5038758;28;20128;-77
2022/03/09 02:04:04;;;;;;;13.15;8.85;;;;;;;;;;5048672;28;20528;-77
2022/03/09 02:06:32;;;;;;;14.13;9.10;;;;;;;;;;5009462;28;20127;-77
2022/03/09 02:11:46;;;;;;;13.95;10.07;;;;;;;;;;5046246;28;20098;-77
2022/03/09 02:14:29;;;;;;;11.75;8.38;;;;;;;;;;5045365;28;20041;-77
2022/03/09 02:16:57;;;;;;;13.70;8.70;;;;;;;;;;5019809;28;20052;-77
2022/03/09 02:19:24;;;;;;;11.32;8.02;;;;;;;;;;5044744;28;20072;-77
2022/03/09 02:21:55;;;;;;;13.35;9.18;;;;;;;;;;5042964;28;20038;-77
2022/03/09 02:24:22;;;;;;;11.20;7.93;;;;;;;;;;5025829;28;20052;-77
2022/03/09 02:26:50;;;;;;;11.57;7.00;;;;;;;;;;5020948;28;20178;-77
2022/03/09 02:29:17;;;;;;;10.50;7.93;;;;;;;;;;5020355;28;20049;-77
2022/03/09 02:31:45;;;;;;;12.50;8.68;;;;;;;;;;5073558;22;20569;-72
2022/03/09 02:34:13;;;;;;;10.82;7.97;;;;;;;;;;5094449;28;20039;-72
2022/03/09 02:36:40;;;;;;;12.38;9.52;;;;;;;;;;5057289;28;20520;-72
2022/03/09 02:39:07;;;;;;;11.65;9.02;;;;;;;;;;5066953;28;20147;-73
2022/03/09 02:41:35;;;;;;;13.85;9.20;;;;;;;;;;5051549;28;20063;-73
2022/03/09 02:44:03;;;;;;;17.40;11.68;;;;;;;;;;5086035;28;20489;-73
2022/03/09 02:46:30;;;;;;;13.82;10.93;;;;;;;;;;5038139;28;20592;-73
2022/03/09 02:48:58;;;;;;;12.48;9.52;;;;;;;;;;5058033;28;20041;-72
2022/03/09 02:51:25;;;;;;;12.30;8.75;;;;;;;;;;5083776;28;20102;-73
2022/03/09 02:53:53;;;;;;;10.90;8.85;;;;;;;;;;5087162;28;20390;-73
2022/03/09 02:56:20;;;;;;;14.73;9.30;;;;;;;;;;5074765;28;20449;-73
2022/03/09 02:58:48;;;;;;;12.13;10.05;;;;;;;;;;5081213;28;20564;-72
2022/03/09 03:01:15;;;;;;;12.63;8.63;;;;;;;;;;5087470;28;20037;-73
2022/03/09 03:03:43;;;;;;;11.02;8.52;;;;;;;;;;5082025;28;20035;-73
2022/03/09 03:06:12;;;;;;;12.60;9.23;;;;;;;;;;5080352;28;20048;-72
2022/03/09 03:08:40;;;;;;;16.15;9.90;;;;;;;;;;5075707;28;20421;-72
2022/03/09 03:11:08;;;;;;;11.77;8.02;;;;;;;;;;5080911;28;20040;-73
2022/03/09 03:13:36;;;;;;;11.40;7.85;;;;;;;;;;5087346;28;20524;-73
2022/03/09 03:16:04;;;;;;;9.82;7.70;;;;;;;;;;5068214;28;20157;-73
2022/03/09 03:18:32;;;;;;;12.07;8.70;;;;;;;;;;5067445;28;20082;-72
2022/03/09 03:21:00;;;;;;;11.90;8.23;;;;;;;;;;5049545;28;20037;-73
2022/03/09 03:23:29;;;;;;;10.57;8.02;;;;;;;;;;5075823;28;20040;-73
2022/03/09 03:25:57;;;;;;;10.15;7.80;;;;;;;;;;5070725;28;20044;-72
2022/03/09 03:28:25;;;;;;;10.65;7.25;;;;;;;;;;5086496;28;20036;-73
2022/03/09 03:30:53;;;;;;;13.80;9.50;;;;;;;;;;5086319;28;20137;-72
2022/03/09 03:33:20;;;;;;;11.25;8.48;;;;;;;;;;5078548;28;20044;-73
2022/03/09 03:35:51;;;;;;;13.68;9.52;;;;;;;;;;5064586;22;20049;-72
2022/03/09 03:38:19;;;;;;;16.10;10.63;;;;;;;;;;5037499;28;20042;-72
2022/03/09 03:40:47;;;;;;;16.00;10.43;;;;;;;;;;5033931;28;20491;-71
2022/03/09 03:43:14;;;;;;;13.88;8.65;;;;;;;;;;5029926;28;20045;-70
2022/03/09 03:45:41;;;;;;;12.23;8.40;;;;;;;;;;5019699;28;20037;-72
2022/03/09 03:48:09;;;;;;;16.13;10.77;;;;;;;;;;5012522;28;20068;-71
2022/03/09 03:50:36;;;;;;;17.85;11.50;;;;;;;;;;5005417;28;20045;-70
2022/03/09 03:53:04;;;;;;;15.63;9.93;;;;;;;;;;5022535;28;20048;-72
2022/03/09 03:55:31;;;;;;;14.18;9.07;;;;;;;;;;5015618;28;20199;-70
2022/03/09 03:57:58;;;;;;;13.68;9.68;;;;;;;;;;5025614;28;20509;-71
2022/03/09 04:00:26;;;;;;;15.73;9.95;;;;;;;;;;5026997;28;20425;-72
2022/03/09 04:02:53;;;;;;;16.10;10.75;;;;;;;;;;5017968;28;20333;-69
2022/03/09 04:05:21;;;;;;;17.35;10.18;;;;;;;;;;5014395;28;20038;-72
2022/03/09 04:07:48;;;;;;;20.05;12.02;;;;;;;;;;4992710;28;20057;-71
2022/03/09 04:10:16;;;;;;;19.95;11.77;;;;;;;;;;5026768;28;20095;-68
2022/03/09 04:12:43;;;;;;;20.83;11.90;;;;;;;;;;5003273;28;20048;-72
2022/03/09 04:15:11;;;;;;;25.83;12.75;;;;;;;;;;5026901;28;20052;-72
2022/03/09 04:17:47;;;;;;;26.38;14.10;;;;;;;;;;5008735;28;20053;-70
2022/03/09 04:20:15;;;;;;;26.98;13.15;;;;;;;;;;5016780;28;20045;-69
2022/03/09 04:22:43;;;;;;;26.90;14.38;;;;;;;;;;5007741;28;20041;-69
2022/03/09 04:25:11;;;;;;;27.05;15.63;;;;;;;;;;5007292;28;20065;-72
2022/03/09 04:27:39;;;;;;;27.40;14.45;;;;;;;;;;5011475;28;20475;-72
2022/03/09 04:30:07;;;;;;;27.33;14.27;;;;;;;;;;5023284;28;20051;-70
2022/03/09 04:32:35;;;;;;;27.90;15.93;;;;;;;;;;5015316;28;20129;-72
2022/03/09 04:35:04;;;;;;;24.00;13.10;;;;;;;;;;5006791;28;20048;-72
2022/03/09 04:37:35;;;;;;;24.00;14.02;;;;;;;;;;5005040;28;20038;-72
2022/03/09 04:40:05;;;;;;;30.63;15.82;;;;;;;;;;5007669;28;20038;-72
2022/03/09 04:42:33;;;;;;;24.77;14.07;;;;;;;;;;5008032;28;20076;-72
2022/03/09 04:45:01;;;;;;;27.27;15.90;;;;;;;;;;5004860;28;20045;-71
2022/03/09 04:47:28;;;;;;;24.30;14.20;;;;;;;;;;5005729;28;20034;-70
2022/03/09 04:49:55;;;;;;;23.48;12.05;;;;;;;;;;5018561;28;20046;-72
2022/03/09 04:52:23;;;;;;;27.40;13.88;;;;;;;;;;5006823;28;20136;-72
2022/03/09 04:54:50;;;;;;;28.08;14.25;;;;;;;;;;5014253;28;20041;-72
2022/03/09 04:57:17;;;;;;;18.58;11.52;;;;;;;;;;5006847;28;20049;-72
2022/03/09 04:59:45;;;;;;;19.70;12.48;;;;;;;;;;5007387;28;20056;-68
2022/03/09 05:02:13;;;;;;;19.02;12.20;;;;;;;;;;5015772;28;20041;-69
2022/03/09 05:04:40;;;;;;;19.00;11.93;;;;;;;;;;5041106;28;20517;-72
2022/03/09 05:07:08;;;;;;;23.65;13.93;;;;;;;;;;5029418;28;20483;-72
2022/03/09 05:09:35;;;;;;;20.45;13.32;;;;;;;;;;5046568;28;20037;-69
2022/03/09 05:12:03;;;;;;;19.05;12.50;;;;;;;;;;5040466;28;20040;-72
2022/03/09 05:14:32;;;;;;;21.33;12.20;;;;;;;;;;5041344;28;20140;-72
2022/03/09 05:17:00;;;;;;;20.25;12.35;;;;;;;;;;5027481;28;20045;-68
2022/03/09 05:19:27;;;;;;;22.58;13.25;;;;;;;;;;5027475;28;20029;-72
2022/03/09 05:21:54;;;;;;;18.10;11.60;;;;;;;;;;5035114;28;20091;-71
2022/03/09 05:24:39;;;;;;;16.85;10.55;;;;;;;;;;5032876;28;20521;-72
2022/03/09 05:27:06;;;;;;;23.23;11.48;;;;;;;;;;5045305;28;20041;-72
2022/03/09 05:29:33;;;;;;;18.05;11.77;;;;;;;;;;5039945;28;20430;-72
2022/03/09 05:32:01;;;;;;;17.60;12.50;;;;;;;;;;5039275;28;20477;-70
2022/03/09 05:34:28;;;;;;;13.95;9.77;;;;;;;;;;5040440;28;20051;-72
2022/03/09 05:36:55;;;;;;;19.15;10.43;;;;;;;;;;5036085;28;20049;-72
2022/03/09 05:39:23;;;;;;;15.93;11.13;;;;;;;;;;5028769;28;20154;-72
2022/03/09 05:41:51;;;;;;;15.52;9.82;;;;;;;;;;5033399;28;20048;-72
2022/03/09 05:44:18;;;;;;;16.48;9.60;;;;;;;;;;5037079;28;20042;-73
2022/03/09 05:46:45;;;;;;;23.13;12.25;;;;;;;;;;5031717;28;20045;-72
2022/03/09 05:49:13;;;;;;;18.75;9.63;;;;;;;;;;5039025;28;20065;-73
2022/03/09 05:51:43;;;;;;;13.80;9.77;;;;;;;;;;5022447;28;20125;-72
2022/03/09 05:54:11;;;;;;;19.27;9.93;;;;;;;;;;5024436;28;20053;-71
2022/03/09 05:56:39;;;;;;;14.50;8.88;;;;;;;;;;5010373;28;20079;-72
2022/03/09 05:59:06;;;;;;;17.98;10.77;;;;;;;;;;5033539;28;20064;-70
2022/03/09 06:01:33;;;;;;;11.43;8.95;;;;;;;;;;5043164;28;20040;-71
2022/03/09 06:04:02;;;;;;;13.13;9.23;;;;;;;;;;5039791;28;20040;-71
2022/03/09 06:06:30;;;;;;;12.82;10.27;;;;;;;;;;5041275;28;20538;-72
2022/03/09 06:08:57;;;;;;;14.00;8.55;;;;;;;;;;5042384;28;20116;-72
2022/03/09 06:11:25;;;;;;;16.60;11.10;;;;;;;;;;5044934;28;20041;-70
2022/03/09 06:13:53;;;;;;;15.90;10.75;;;;;;;;;;5041678;28;20475;-72
2022/03/09 06:16:21;;;;;;;15.75;9.15;;;;;;;;;;5027053;28;20037;-72
2022/03/09 06:18:51;;;;;;;15.63;9.40;;;;;;;;;;5036809;28;20076;-70
2022/03/09 06:21:19;;;;;;;14.82;10.98;;;;;;;;;;5039202;28;20033;-71
2022/03/09 06:23:46;;;;;;;20.50;11.75;;;;;;;;;;5033723;28;20502;-72
2022/03/09 06:26:13;;;;;;;19.83;12.77;;;;;;;;;;5039503;28;20041;-71
2022/03/09 06:28:41;;;;;;;13.40;9.38;;;;;;;;;;5047153;28;20056;-71
2022/03/09 06:31:08;;;;;;;17.17;10.27;;;;;;;;;;5049515;28;20041;-70
2022/03/09 06:33:36;;;;;;;13.70;10.38;;;;;;;;;;5048017;28;20045;-72
2022/03/09 06:36:06;;;;;;;15.05;11.07;;;;;;;;;;5047375;28;20037;-72
2022/03/09 06:38:34;;;;;;;19.17;11.85;;;;;;;;;;5047664;28;20506;-69
2022/03/09 06:41:02;;;;;;;16.45;11.85;;;;;;;;;;5037180;28;20040;-72
2022/03/09 06:43:29;;;;;;;18.38;12.55;;;;;;;;;;5035965;28;20454;-69
2022/03/09 06:45:58;;;;;;;19.15;13.27;;;;;;;;;;5036079;28;20398;-70
2022/03/09 06:48:26;;;;;;;21.50;16.08;;;;;;;;;;5028216;28;21345;-72
2022/03/09 06:50:53;;;;;;;21.83;14.18;;;;;;;;;;5041984;28;20056;-70
2022/03/09 06:53:25;;;;;;;16.90;12.00;;;;;;;;;;5029703;28;20037;-69
2022/03/09 06:55:53;;;;;;;16.50;12.77;;;;;;;;;;5030081;28;20091;-72
2022/03/09 06:58:23;;;;;;;16.95;12.25;;;;;;;;;;5044036;28;20047;-72
2022/03/09 07:00:55;;;;;;;19.13;13.23;;;;;;;;;;5025514;28;20045;-72
2022/03/09 07:03:23;;;;;;;17.70;12.10;;;;;;;;;;5023673;28;20041;-71
2022/03/09 07:05:52;;;;;;;17.50;11.68;;;;;;;;;;5030613;28;20414;-70
2022/03/09 07:08:20;;;;;;;19.52;12.50;;;;;;;;;;5022939;28;20127;-71
2022/03/09 07:10:47;;;;;;;17.98;13.18;;;;;;;;;;5046188;28;20052;-70
2022/03/09 07:13:15;;;;;;;16.15;11.38;;;;;;;;;;5027968;28;20044;-68
2022/03/09 07:15:42;;;;;;;16.15;11.60;;;;;;;;;;5026404;28;20045;-70
2022/03/09 07:18:09;;;;;;;14.55;10.27;;;;;;;;;;5037542;28;20582;-70
2022/03/09 07:20:37;;;;;;;14.27;10.50;;;;;;;;;;5037658;28;20029;-69
2022/03/09 07:23:05;;;;;;;14.13;11.00;;;;;;;;;;5042247;28;20055;-71
2022/03/09 07:25:32;;;;;;;12.90;9.93;;;;;;;;;;5037186;28;20402;-72
2022/03/09 07:28:08;;;;;;;13.38;10.98;;;;;;;;;;5038525;28;20091;-70
2022/03/09 07:30:36;;;;;;;14.68;11.23;;;;;;;;;;5041095;28;20041;-71
2022/03/09 07:33:03;;;;;;;15.45;10.13;;;;;;;;;;5038999;28;20044;-71
2022/03/09 07:35:30;;;;;;;12.63;10.02;;;;;;;;;;5034111;28;20137;-71
2022/03/09 07:37:58;;;;;;;18.45;9.82;;;;;;;;;;5006199;28;20132;-70
2022/03/09 07:40:25;;;;;;;15.32;11.02;;;;;;;;;;5043817;28;20064;-71
2022/03/09 07:42:52;;;;;;;15.68;9.23;;;;;;;;;;5047925;28;20533;-69
2022/03/09 07:45:20;;;;;;;13.60;10.35;;;;;;;;;;5044243;28;20034;-71
2022/03/09 07:47:47;;;;;;;13.65;10.57;;;;;;;;;;5036257;28;20132;-70
2022/03/09 07:50:14;;;;;;;13.80;10.50;;;;;;;;;;5040240;28;20418;-69
2022/03/09 07:52:42;;;;;;;15.98;10.40;;;;;;;;;;5034436;28;20041;-71
2022/03/09 07:55:10;;;;;;;14.40;10.40;;;;;;;;;;5033920;28;20038;-70
2022/03/09 07:57:37;;;;;;;14.05;10.15;;;;;;;;;;5038342;28;20033;-69
2022/03/09 08:00:06;;;;;;;16.48;10.40;;;;;;;;;;5045196;28;20048;-71
2022/03/09 08:02:41;;;;;;;12.43;9.43;;;;;;;;;;5047513;28;20110;-68
2022/03/09 08:05:11;;;;;;;18.13;9.27;;;;;;;;;;5046692;28;20044;-70
2022/03/09 08:07:39;;;;;;;10.13;8.98;;;;;;;;;;5045616;28;20041;-70
2022/03/09 08:10:09;;;;;;;13.85;9.23;;;;;;;;;;5029369;28;20061;-69
2022/03/09 08:12:37;;;;;;;14.20;9.60;;;;;;;;;;5048043;28;20502;-68
2022/03/09 08:15:04;;;;;;;11.15;8.88;;;;;;;;;;5037157;28;20037;-69
2022/03/09 08:17:32;;;;;;;14.45;8.07;;;;;;;;;;5019688;28;20046;-70
2022/03/09 08:19:59;;;;;;;14.93;8.73;;;;;;;;;;5025374;28;20041;-70
2022/03/09 08:22:27;;;;;;;11.27;8.80;;;;;;;;;;5009540;28;20041;-68
2022/03/09 08:24:54;;;;;;;10.35;8.45;;;;;;;;;;5027309;28;20041;-69
2022/03/09 08:27:21;;;;;;;11.23;8.13;;;;;;;;;;5027633;28;20041;-70
2022/03/09 08:29:50;;;;;;;10.60;7.82;;;;;;;;;;5028712;28;20087;-71
2022/03/09 08:32:21;;;;;;;11.15;8.35;;;;;;;;;;5028536;28;20045;-68
2022/03/09 08:34:48;;;;;;;9.95;7.78;;;;;;;;;;5027613;28;20045;-70
2022/03/09 08:37:16;;;;;;;10.82;7.75;;;;;;;;;;5011211;28;20111;-67
2022/03/09 08:39:47;;;;;;;11.25;7.43;;;;;;;;;;5028054;28;20052;-71
2022/03/09 08:42:16;;;;;;;10.75;7.93;;;;;;;;;;5027882;28;20050;-71
2022/03/09 08:44:43;;;;;;;8.35;7.45;;;;;;;;;;5018395;28;20042;-69
2022/03/09 08:47:11;;;;;;;10.32;8.27;;;;;;;;;;5027647;28;20049;-70
2022/03/09 08:49:40;;;;;;;9.77;7.70;;;;;;;;;;5027818;28;20503;-70
2022/03/09 08:52:08;;;;;;;9.00;7.25;;;;;;;;;;5027747;28;20124;-66
2022/03/09 08:54:35;;;;;;;9.15;7.63;;;;;;;;;;5027273;28;20124;-67
2022/03/09 08:57:03;;;;;;;9.25;7.75;;;;;;;;;;5031664;28;20045;-69
2022/03/09 08:59:31;;;;;;;8.73;7.22;;;;;;;;;;5030563;28;20071;-68
2022/03/09 09:01:59;;;;;;;10.82;7.22;;;;;;;;;;5032587;28;20053;-69
2022/03/09 09:04:26;;;;;;;9.20;7.03;;;;;;;;;;5050815;28;20052;-70
2022/03/09 09:06:54;;;;;;;8.38;7.40;;;;;;;;;;5051268;28;20494;-68
2022/03/09 09:09:24;;;;;;;8.60;7.05;;;;;;;;;;5051203;28;20048;-68
2022/03/09 09:11:54;;;;;;;9.07;8.02;;;;;;;;;;5051466;28;20116;-69
2022/03/09 09:14:22;;;;;;;10.55;8.40;;;;;;;;;;5050870;28;20127;-67
2022/03/09 09:16:49;;;;;;;9.07;7.47;;;;;;;;;;5051205;28;20068;-68
2022/03/09 09:19:17;;;;;;;8.20;7.40;;;;;;;;;;5050809;28;20076;-71
2022/03/09 09:21:47;;;;;;;8.68;7.78;;;;;;;;;;5050816;28;20395;-70
2022/03/09 09:24:15;;;;;;;8.60;7.68;;;;;;;;;;5050759;28;20047;-68
2022/03/09 09:26:44;;;;;;;10.50;7.20;;;;;;;;;;5051146;28;20045;-69
2022/03/09 09:29:31;;;;;;;9.50;7.43;;;;;;;;;;5050867;28;20533;-70
2022/03/09 09:31:59;;;;;;;10.40;8.35;;;;;;;;;;5050700;28;20448;-70
2022/03/09 09:34:26;;;;;;;9.88;7.97;;;;;;;;;;5051034;28;20048;-69
2022/03/09 09:36:54;;;;;;;9.68;7.97;;;;;;;;;;5086765;22;20411;-87
2022/03/09 09:39:22;;;;;;;10.15;7.70;;;;;;;;;;5066339;28;20048;-87
2022/03/09 09:41:52;;;;;;;9.88;8.07;;;;;;;;;;5048697;28;20422;-88
2022/03/09 09:44:23;;;;;;;9.25;7.93;;;;;;;;;;5055716;28;20029;-88
2022/03/09 09:46:51;;;;;;;8.40;7.38;;;;;;;;;;5062654;28;20123;-86
2022/03/09 09:49:24;;;;;;;7.82;7.00;;;;;;;;;;5066296;28;20083;-87
2022/03/09 09:51:52;;;;;;;9.05;7.45;;;;;;;;;;5067606;28;20036;-88
2022/03/09 09:54:22;;;;;;;9.00;7.80;;;;;;;;;;5070507;28;20676;-87
2022/03/09 09:56:53;;;;;;;8.75;7.55;;;;;;;;;;5055912;28;20429;-87
2022/03/09 09:59:20;;;;;;;9.63;7.57;;;;;;;;;;5068754;28;21025;-86
2022/03/09 10:01:47;;;;;;;13.80;7.90;;;;;;;;;;5045752;28;20049;-86
2022/03/09 10:04:15;;;;;;;10.07;7.70;;;;;;;;;;5071527;28;20044;-86
2022/03/09 10:06:43;;;;;;;10.38;7.90;;;;;;;;;;5067797;28;20043;-87
2022/03/09 10:09:11;;;;;;;15.27;7.85;;;;;;;;;;5047373;28;20052;-87
2022/03/09 10:11:46;;;;;;;9.82;7.75;;;;;;;;;;5067959;28;20539;-86
2022/03/09 10:14:14;;;;;;;9.38;8.02;;;;;;;;;;5052866;28;20440;-87
2022/03/09 10:17:01;;;;;;;8.07;6.78;;;;;;;;;;5059136;28;20109;-86
2022/03/09 10:19:29;;;;;;;12.13;7.22;;;;;;;;;;5050262;28;20055;-86
2022/03/09 10:21:57;;;;;;;11.45;7.82;;;;;;;;;;5060418;28;20102;-86
2022/03/09 10:24:34;;;;;;;10.45;7.97;;;;;;;;;;5056153;28;20033;-86
2022/03/09 10:27:01;;;;;;;10.65;8.02;;;;;;;;;;5078661;28;20043;-87
2022/03/09 10:29:28;;;;;;;8.75;6.88;;;;;;;;;;5075126;28;20395;-86
2022/03/09 10:31:59;;;;;;;8.45;7.00;;;;;;;;;;5055180;28;20028;-84
2022/03/09 10:34:29;;;;;;;10.13;7.00;;;;;;;;;;5072070;28;20044;-85
2022/03/09 10:37:04;;;;;;;7.85;5.97;;;;;;;;;;5058474;28;20043;-85
2022/03/09 10:39:37;;;;;;;8.73;6.38;;;;;;;;;;5062922;28;20040;-86
2022/03/09 10:42:21;;;;;;;7.30;6.60;;;;;;;;;;5059768;28;20086;-86
2022/03/09 10:44:50;;;;;;;6.47;5.75;;;;;;;;;;5072797;28;20119;-86
2022/03/09 10:47:38;;;;;;;7.88;5.60;;;;;;;;;;5072662;28;20256;-86
2022/03/09 10:50:28;;;;;;;7.00;5.88;;;;;;;;;;5055363;28;20052;-86
2022/03/09 10:52:57;;;;;;;10.88;5.82;;;;;;;;;;5056472;28;20052;-86
2022/03/09 10:55:28;;;;;;;5.65;5.15;;;;;;;;;;5050718;28;20494;-86
2022/03/09 10:58:10;;;;;;;7.68;5.47;;;;;;;;;;5051798;28;20056;-86
2022/03/09 11:00:48;;;;;;;7.00;5.97;;;;;;;;;;5037290;28;20313;-86
2022/03/09 11:03:17;;;;;;;9.10;5.60;;;;;;;;;;5035359;28;20049;-86
2022/03/09 11:05:48;;;;;;;6.43;5.45;;;;;;;;;;5046578;28;20049;-87
2022/03/09 11:08:16;;;;;;;10.80;5.75;;;;;;;;;;5043417;28;20047;-86
2022/03/09 11:10:47;;;;;;;6.65;5.55;;;;;;;;;;5069809;28;20048;-86
2022/03/09 11:13:14;;;;;;;6.93;5.05;;;;;;;;;;5068000;28;20072;-86
2022/03/09 11:15:43;;;;;;;8.40;5.38;;;;;;;;;;5071542;28;20516;-86
2022/03/09 11:18:20;;;;;;;9.82;5.07;;;;;;;;;;5055657;28;20041;-86
2022/03/09 11:20:49;;;;;;;9.40;5.28;;;;;;;;;;5064323;28;20094;-86
2022/03/09 11:23:18;;;;;;;6.32;5.10;;;;;;;;;;5031693;28;20483;-86
2022/03/09 11:26:17;;;;;;;8.73;5.00;;;;;;;;;;5071780;28;20410;-87
2022/03/09 11:28:45;;;;;;;5.07;4.57;;;;;;;;;;5012566;28;20040;-87
2022/03/09 11:31:14;;;;;;;11.95;4.82;;;;;;;;;;5067774;28;20036;-86
2022/03/09 11:33:43;;;;;;;4.97;3.80;;;;;;;;;;5066308;28;20052;-87
2022/03/09 11:36:23;;;;;;;5.57;3.72;;;;;;;;;;5074255;28;20051;-85
2022/03/09 11:38:55;;;;;;;3.55;3.22;;;;;;;;;;5064183;28;20053;-86
2022/03/09 11:41:26;;;;;;;4.00;3.45;;;;;;;;;;5057907;28;20040;-85
2022/03/09 11:44:14;;;;;;;6.40;3.83;;;;;;;;;;5040256;28;20043;-86
2022/03/09 11:47:00;;;;;;;6.43;3.42;;;;;;;;;;5046290;28;20036;-86
2022/03/09 11:49:32;;;;;;;3.40;3.10;;;;;;;;;;5060381;28;20043;-86
2022/03/09 11:52:07;;;;;;;2.50;2.30;;;;;;;;;;5057786;28;20060;-86
2022/03/09 11:54:39;;;;;;;2.83;1.70;;;;;;;;;;5044854;28;20505;-86
2022/03/09 11:57:07;;;;;;;2.85;1.95;;;;;;;;;;5051282;28;20060;-86
2022/03/09 11:59:34;;;;;;;1.95;1.63;;;;;;;;;;5045535;28;20049;-86
2022/03/09 12:02:12;;;;;;;2.28;1.80;;;;;;;;;;5048897;28;20048;-86
2022/03/09 12:04:42;;;;;;;5.47;1.85;;;;;;;;;;5044347;28;20739;-84
2022/03/09 12:07:10;;;;;;;3.60;2.88;;;;;;;;;;5046889;28;20480;-86
2022/03/09 12:09:50;;;;;;;5.72;2.55;;;;;;;;;;5044728;28;20040;-86
2022/03/09 12:12:17;;;;;;;4.32;2.38;;;;;;;;;;5059996;28;20059;-85
2022/03/09 12:15:01;;;;;;;3.75;3.28;;;;;;;;;;5039554;28;20591;-86
2022/03/09 12:17:30;;;;;;;4.03;3.55;;;;;;;;;;5045828;28;20720;-87
2022/03/09 12:20:17;;;;;;;5.20;3.45;;;;;;;;;;5032434;28;20442;-86
2022/03/09 12:22:56;;;;;;;4.47;2.95;;;;;;;;;;5027833;28;20053;-86
2022/03/09 12:25:36;;;;;;;4.93;2.83;;;;;;;;;;5059554;28;20413;-86
2022/03/09 12:28:20;;;;;;;3.45;2.40;;;;;;;;;;5058000;28;20047;-86
2022/03/09 12:31:08;;;;;;;3.72;2.53;;;;;;;;;;5049884;28;20078;-85
2022/03/09 12:33:40;;;;;;;5.82;3.03;;;;;;;;;;5052307;28;20049;-85
2022/03/09 12:36:09;;;;;;;3.50;3.20;;;;;;;;;;5066155;28;20171;-84
2022/03/09 12:38:56;;;;;;;3.38;3.08;;;;;;;;;;5069238;28;20099;-86
2022/03/09 12:41:24;;;;;;;3.47;3.10;;;;;;;;;;5043521;28;20044;-84
2022/03/09 12:43:53;;;;;;;3.65;3.33;;;;;;;;;;5055137;28;20055;-85
2022/03/09 12:46:23;;;;;;;3.43;2.87;;;;;;;;;;5069734;28;20100;-85
2022/03/09 12:48:50;;;;;;;2.60;2.40;;;;;;;;;;5052581;28;20040;-85
2022/03/09 12:51:18;;;;;;;5.53;4.03;;;;;;;;;;5070242;28;20044;-84
2022/03/09 12:54:06;;;;;;;6.10;4.65;;;;;;;;;;5054911;28;20056;-85
2022/03/09 12:56:33;;;;;;;6.30;4.93;;;;;;;;;;5049173;28;20088;-85
2022/03/09 12:59:09;;;;;;;11.70;6.40;;;;;;;;;;5069690;28;20041;-85
2022/03/09 13:01:36;;;;;;;14.23;6.25;;;;;;;;;;5055013;28;20041;-85
2022/03/09 13:04:04;;;;;;;10.70;6.32;;;;;;;;;;5067891;28;20055;-85
2022/03/09 13:06:36;;;;;;;10.45;6.40;;;;;;;;;;5035433;28;20544;-86
2022/03/09 13:09:04;;;;;;;6.90;5.70;;;;;;;;;;5052791;28;20056;-85
2022/03/09 13:11:35;;;;;;;5.97;5.15;;;;;;;;;;5067965;28;20738;-84
2022/03/09 13:14:13;;;;;;;8.77;5.45;;;;;;;;;;5070688;28;20080;-85
2022/03/09 13:16:40;;;;;;;6.57;5.53;;;;;;;;;;5053468;28;20056;-85
2022/03/09 13:19:08;;;;;;;9.73;6.50;;;;;;;;;;5071125;28;20051;-86
2022/03/09 13:21:35;;;;;;;7.13;6.05;;;;;;;;;;5054469;28;20044;-85
2022/03/09 13:24:04;;;;;;;8.88;6.28;;;;;;;;;;5055246;28;20044;-85
2022/03/09 13:26:43;;;;;;;6.85;5.82;;;;;;;;;;5034224;28;20049;-85
2022/03/09 13:29:19;;;;;;;7.65;5.70;;;;;;;;;;5052443;28;20044;-86
2022/03/09 13:32:02;;;;;;;5.57;4.88;;;;;;;;;;5048352;28;20057;-85
2022/03/09 13:34:39;;;;;;;5.60;4.82;;;;;;;;;;5065366;28;20098;-85
2022/03/09 13:37:21;;;;;;;5.00;4.30;;;;;;;;;;5027033;28;20064;-84
2022/03/09 13:39:54;;;;;;;5.50;4.57;;;;;;;;;;5062240;28;20492;-84
2022/03/09 13:42:23;;;;;;;4.57;3.72;;;;;;;;;;5053894;28;20072;-87
2022/03/09 13:45:23;;;;;;;6.10;5.13;;;;;;;;;;5051729;28;20063;-85
2022/03/09 13:47:52;;;;;;;7.28;4.18;;;;;;;;;;5025957;28;20510;-86
2022/03/09 13:50:20;;;;;;;3.63;2.75;;;;;;;;;;5045649;28;20071;-85
2022/03/09 13:52:48;;;;;;;4.07;3.70;;;;;;;;;;5050880;28;20049;-85
2022/03/09 13:55:20;;;;;;;13.35;3.90;;;;;;;;;;5052904;28;20474;-86
2022/03/09 13:57:57;;;;;;;4.22;3.75;;;;;;;;;;5034222;28;20103;-86
2022/03/09 14:00:30;;;;;;;4.20;3.80;;;;;;;;;;5041255;28;20048;-85
2022/03/09 14:03:08;;;;;;;4.28;3.72;;;;;;;;;;5069183;28;20410;-85
2022/03/09 14:05:37;;;;;;;7.00;3.88;;;;;;;;;;5052586;28;20119;-85
2022/03/09 14:08:05;;;;;;;4.85;4.18;;;;;;;;;;5069745;28;20040;-85
2022/03/09 14:10:36;;;;;;;5.07;3.72;;;;;;;;;;5051918;28;20524;-86
2022/03/09 14:13:08;;;;;;;5.15;4.28;;;;;;;;;;5054285;28;20052;-85
2022/03/09 14:15:35;;;;;;;;;;;;;;;;;;5049766;28;20112;-86
2022/03/09 14:18:03;;;;;;;3.75;3.45;;;;;;;;;;5068825;28;19935;-85
2022/03/09 14:20:31;;;;;;;4.97;4.05;;;;;;;;;;5037738;28;20120;-85
2022/03/09 14:22:58;;;;;;;5.57;4.32;;;;;;;;;;5054476;28;20040;-86
2022/03/09 14:25:26;;;;;;;4.40;4.00;;;;;;;;;;5048228;28;20047;-87
2022/03/09 14:27:54;;;;;;;4.95;4.07;;;;;;;;;;5045491;28;20040;-86
2022/03/09 14:30:21;;;;;;;5.10;3.83;;;;;;;;;;5071500;28;20098;-86
2022/03/09 14:32:49;;;;;;;5.03;3.83;;;;;;;;;;5052055;28;20059;-85
2022/03/09 14:35:16;;;;;;;5.30;3.40;;;;;;;;;;5071398;28;20083;-86
2022/03/09 14:37:46;;;;;;;4.47;3.85;;;;;;;;;;5065662;28;20513;-85
2022/03/09 14:40:13;;;;;;;3.90;3.50;;;;;;;;;;5071797;28;20044;-85
2022/03/09 14:42:43;;;;;;;4.32;3.45;;;;;;;;;;5067606;28;20036;-85
2022/03/09 14:45:13;;;;;;;3.92;3.58;;;;;;;;;;5043830;28;20040;-85
2022/03/09 14:47:40;;;;;;;6.20;3.60;;;;;;;;;;5059214;28;20109;-87